Yengema Airport

Jump to: basic info | weather | comments

Related pages: nearby airports | nearby navaids | notams | map

Basic information (top)

Codes: WYE GFYE
Location: lon 8.610470, lat -11.045400, elev 1,300 ft / 396 m msl
Status: medium_airport
Scheduled airline service: yes
Links: Wikipedia Mobile

Weather (top)

Current conditions for Lungi International Airport 128nm (236km) W (rec'd 2014/12/19 12:00Z):

GFLL 191200Z 09008KT 8000 NSC 30/18 Q1012

Airport forecast for Lungi International Airport 128nm (236km) W (rec'd 2014/12/19 12:51Z):

TAF TAF COR GFLL 191000Z 1912/2018 06005KT 4000 HZ NSC 
      BECMG 1915/1917 03005KT 9000 HZ NLC 
      TEMPO 1922/2003 09006KT 2000 BR BKN010 
      BECMG 2006/2008 03005KT 8000 BR SCT012

Latest comments (top)

No comments yet for Yengema Airport

More... (top)

See also NOTAMs and nearby airports and navaids, or visit the Yengema Airport page at the main OurAirports website..